Flight Track Log - Related Links

Times and Time Zones

All times are in EDT time to prevent confusion due to time zone crossing. See the UAL3740 flight status page for this flight to view local times or setup timezone preferences in your user account.

Time Position Orientation Groundspeed Altitude Reporting Facility
EDT Latitude Longitude Course Direction KTS MPH feet Rate Location/Type
Fri 06:11:38 AM 38.9500 -77.5333 275° West 198 228 2,600  Level Potomac TRACON
Fri 06:13:31 AM 38.9311 -77.6597 259° West 191 220 5,000 1,744 Climbing Washington Center
Fri 06:14:00 AM 39.1132 -77.9372 277° West  Level Estimated
Fri 06:14:30 AM 38.8906 -77.7092 224° Southwest 191 220 7,600  Level Washington Center
Fri 06:15:00 AM 39.1543 -78.0569 270° West  Level Estimated
Fri 06:15:29 AM 38.8894 -77.7786 269° West 191 220 10,000  Level Washington Center
Fri 06:16:00 AM 39.1953 -78.1767 275° West  Level Estimated
Fri 06:16:30 AM 38.9044 -77.8697 282° West 247 284 11,100  Level Washington Center
Fri 06:17:32 AM 38.9192 -77.9661 281° West 273 314 11,900 1,160 Climbing Washington Center
Fri 06:18:29 AM 38.9378 -78.0817 282° West 311 358 13,400 1,780 Climbing Washington Center
Fri 06:19:30 AM 38.9581 -78.1997 282° West 333 383 15,400 1,951 Climbing Washington Center
Fri 06:20:32 AM 38.9681 -78.3203 276° West 338 389 17,400 1,966 Climbing Washington Center
Fri 06:21:29 AM 38.9756 -78.4381 275° West 338 389 19,300 1,462 Climbing Washington Center
Fri 06:22:31 AM 38.9831 -78.5611 275° West 338 389 20,300 984 Climbing Washington Center
Fri 06:23:31 AM 38.9903 -78.6897 274° West 352 405 21,300 992 Climbing Washington Center
Fri 06:24:32 AM 38.9992 -78.8236 275° West 367 422 22,300 1,017 Climbing Washington Center
Fri 06:25:29 AM 39.0061 -78.9547 274° West 377 434 23,300 1,231 Climbing Washington Center
Fri 06:26:29 AM 39.0147 -79.0886 275° West 377 434 24,700 1,388 Climbing Washington Center
Fri 06:27:30 AM 39.0233 -79.2200 275° West 377 434 26,100 1,450 Climbing Washington Center
Fri 06:28:29 AM 39.0300 -79.3461 274° West 366 421 27,600 1,339 Climbing Washington Center
Fri 06:29:31 AM 39.0408 -79.4669 277° West 361 415 28,800 1,289 Climbing Washington Center
Fri 06:30:30 AM 39.0514 -79.5850 277° West 349 402 30,200 1,050 Climbing Washington Center
Fri 06:31:31 AM 39.0578 -79.7056 274° West 344 396 30,900 590 Climbing Washington Center
Fri 06:32:32 AM 39.0639 -79.8264 274° West 339 390 31,400 531 Climbing Washington Center
Fri 06:33:58 AM 39.0736 -80.0208 274° West 354 407 32,200 531 Climbing Indianapolis Center
Fri 06:34:59 AM 39.0800 -80.1400 274° West 357 411 32,700 496 Climbing Indianapolis Center
Fri 06:35:59 AM 39.0872 -80.2694 274° West 361 415 33,200 496 Climbing Indianapolis Center
Fri 06:37:00 AM 39.0939 -80.4008 274° West 366 421 33,700 393 Climbing Indianapolis Center
Fri 06:38:01 AM 39.1014 -80.5311 274° West 365 420 34,000 149 Climbing Indianapolis Center
Fri 06:39:01 AM 39.1081 -80.6644 274° West 373 429 34,000  Level Indianapolis Center
Fri 06:40:02 AM 39.1403 -80.7964 288° West 390 449 34,000  Level Indianapolis Center
Fri 06:41:03 AM 39.1983 -80.9236 301° West 411 473 34,000  Level Indianapolis Center
Fri 06:42:03 AM 39.2533 -81.0483 300° West 405 466 34,000  Level Indianapolis Center
Fri 06:43:04 AM 39.3186 -81.1961 300° West 399 459 34,000  Level Indianapolis Center
Fri 06:44:05 AM 39.3731 -81.3194 300° West 397 457 34,000  Level Indianapolis Center
Fri 06:45:05 AM 39.4275 -81.4428 300° West 397 457 34,000  Level Indianapolis Center
Fri 06:46:06 AM 39.4825 -81.5675 300° West 399 459 34,000  Level Indianapolis Center
Fri 06:47:07 AM 39.5369 -81.6928 299° West 400 460 34,000  Level Indianapolis Center
Fri 06:48:08 AM 39.5914 -81.8167 300° West 398 458 34,000  Level Indianapolis Center
Fri 06:49:08 AM 39.6458 -81.9428 299° West 400 460 34,000  Level Indianapolis Center
Fri 06:50:09 AM 39.7006 -82.0681 300° West 400 460 34,000  Level Indianapolis Center
Fri 06:51:10 AM 39.7572 -82.2017 299° West 404 465 34,000  Level Indianapolis Center
Fri 06:52:11 AM 39.8122 -82.3289 299° West 405 466 34,000  Level Indianapolis Center
Fri 06:53:12 AM 39.8672 -82.4572 299° West 408 470 34,000  Level Indianapolis Center
Fri 06:54:12 AM 39.9211 -82.5867 299° West 409 471 34,000  Level Indianapolis Center
Fri 06:55:13 AM 39.9758 -82.7147 299° West 407 468 34,000  Level Indianapolis Center
Fri 06:56:14 AM 40.0308 -82.8436 299° West 408 470 34,000  Level Indianapolis Center
Fri 06:57:15 AM 40.0844 -82.9739 298° West 410 472 34,000  Level Indianapolis Center
Fri 06:58:16 AM 40.1392 -83.1033 299° West 411 473 34,000  Level Indianapolis Center
Fri 06:59:17 AM 40.2039 -83.2586 299° West 411 473 34,000  Level Indianapolis Center
Fri 07:00:18 AM 40.2583 -83.3892 299° West 412 474 34,000  Level Indianapolis Center
Fri 07:01:19 AM 40.3125 -83.5214 298° West 415 478 34,000  Level Indianapolis Center
Fri 07:02:20 AM 40.3672 -83.6539 298° West 417 480 34,000  Level Indianapolis Center
Fri 07:03:21 AM 40.4217 -83.7867 298° West 416 479 34,000  Level Indianapolis Center
Fri 07:04:22 AM 40.4761 -83.9208 298° West 419 482 34,000  Level Indianapolis Center
Fri 07:05:22 AM 40.5297 -84.0542 298° West 415 478 34,000  Level Indianapolis Center
Fri 07:06:23 AM 40.5836 -84.1889 298° West 417 480 34,000  Level Indianapolis Center
Fri 07:07:24 AM 40.6386 -84.3242 298° West 421 484 34,000  Level Indianapolis Center
Fri 07:08:25 AM 40.6925 -84.4600 298° West 420 483 34,000  Level Indianapolis Center
Fri 07:09:26 AM 40.7567 -84.6250 297° West 424 488 34,000  Level Indianapolis Center
Fri 07:10:27 AM 40.8103 -84.7619 297° West 421 484 34,000  Level Indianapolis Center
Fri 07:11:28 AM 40.8611 -84.9011 296° West 424 488 34,000  Level Indianapolis Center
Fri 07:12:29 AM 40.9092 -85.0278 297° West 424 488 34,000 -344 Level Indianapolis Center
Fri 07:13:30 AM 40.9619 -85.1667 297° West 426 490 33,300 -1,131 Descending Indianapolis Center
Fri 07:14:31 AM 41.0144 -85.3031 297° West 420 483 31,700 -2,262 Descending Indianapolis Center
Fri 07:15:32 AM 41.0722 -85.4600 296° West 402 463 28,700 -2,705 Descending Indianapolis Center
Fri 07:16:33 AM 41.1214 -85.5864 297° West 389 448 26,200 -1,820 Descending Indianapolis Center
Fri 07:17:34 AM 41.1622 -85.7078 294° West 367 422 25,000 -585 Descending Indianapolis Center
Fri 07:18:36 AM 41.2075 -85.8308 296° West 372 428 25,000  Level Indianapolis Center
Fri 07:19:37 AM 41.2511 -85.9600 294° West 383 441 25,000 -295 Level Indianapolis Center
Fri 07:20:38 AM 41.2953 -86.0875 295° West 383 441 24,400 -1,279 Descending Indianapolis Center
Fri 07:21:39 AM 41.3367 -86.2150 293° West 380 437 22,400 -1,967 Descending Indianapolis Center
Fri 07:22:40 AM 41.3758 -86.3331 294° West 367 422 20,400 -2,239 Descending Indianapolis Center
Fri 07:23:53 AM 41.4239 -86.4917 292° West 359 413 17,400 -2,239 Descending Chicago Center
Fri 07:24:54 AM 41.4594 -86.6128 291° West 354 407 15,400 -2,066 Descending Chicago Center
Fri 07:25:55 AM 41.5267 -86.7256 309° West 351 404 13,200 -1,659 Descending Chicago Center
Fri 07:26:57 AM 41.6242 -86.7664 343° North 371 427 12,000 -585 Descending Chicago Center
Fri 07:27:58 AM 41.7164 -86.8008 344° North 354 407 12,000  Level Chicago Center
Fri 07:28:59 AM 41.8150 -86.8169 353° North 357 411 12,000 -246 Level Chicago Center
Fri 07:30:00 AM 41.8925 -86.8781 330° Northwest 340 391 11,500 -984 Descending Chicago Center
Fri 07:31:01 AM 41.9306 -86.9878 295° West 327 376 10,000 -732 Descending Chicago Center
Fri 07:32:03 AM 41.9622 -87.0978 291° West 321 369 10,000  Level Chicago Center
Fri 07:33:04 AM 41.9647 -87.2122 272° West 313 360 10,000 -885 Level Chicago Center
Fri 07:34:05 AM 41.9656 -87.3217 271° West 249 287 8,200 -1,463 Descending Chicago Center
Fri 07:35:07 AM 41.9664 -87.4131 271° West 247 284 7,000 -634 Descending Chicago Center
Fri 07:36:08 AM 41.9656 -87.4881 269° West 210 242 6,900 -683 Descending Chicago Center
Fri 07:37:10 AM 41.9647 -87.5656 269° West 209 241 5,600 -1,122 Descending Chicago Center
Fri 07:38:11 AM 41.9664 -87.6350 272° West 200 230 4,600 -934 Descending Chicago Center
Fri 07:39:12 AM 41.9658 -87.6928 269° West 180 207 3,700 -885 Descending Chicago Center
Fri 07:40:13 AM 41.9661 -87.7514 270° West 167 192 2,800 -878 Descending Chicago Center
Fri 07:41:15 AM 41.9667 -87.8106 271° West 150 173 1,900 -732 Descending Chicago Center
Fri 07:42:16 AM 41.9667 -87.8542 270° West 132 152 1,300 -590 Descending Chicago Center

Login

Don't have an account? Register now (free) for customized features, flight alerts, and more!